sensor_id;sensor_type;location;lat;lon;timestamp;pressure;altitude;pressure_sealevel;temperature;humidity
80323;BME280;69636;52.372;13.610;2023-06-14T00:04:02;101509.13;;;13.46;67.78
80323;BME280;69636;52.372;13.610;2023-06-14T00:06:29;101505.19;;;13.58;67.33
80323;BME280;69636;52.372;13.610;2023-06-14T00:08:57;101518.31;;;13.52;67.41
80323;BME280;69636;52.372;13.610;2023-06-14T00:11:24;101506.03;;;13.59;67.61
80323;BME280;69636;52.372;13.610;2023-06-14T00:13:51;101509.47;;;13.51;68.12
80323;BME280;69636;52.372;13.610;2023-06-14T00:16:18;101504.22;;;13.59;67.85
80323;BME280;69636;52.372;13.610;2023-06-14T00:18:46;101503.84;;;13.54;68.04
80323;BME280;69636;52.372;13.610;2023-06-14T00:21:15;101508.59;;;13.43;68.68
80323;BME280;69636;52.372;13.610;2023-06-14T00:23:42;101514.75;;;13.43;68.47
80323;BME280;69636;52.372;13.610;2023-06-14T00:26:09;101515.38;;;13.37;68.71
80323;BME280;69636;52.372;13.610;2023-06-14T00:28:36;101514.53;;;13.19;69.69
80323;BME280;69636;52.372;13.610;2023-06-14T00:31:04;101515.53;;;13.08;70.60
80323;BME280;69636;52.372;13.610;2023-06-14T00:33:31;101521.03;;;13.07;70.71
80323;BME280;69636;52.372;13.610;2023-06-14T00:35:58;101524.75;;;13.23;69.72
80323;BME280;69636;52.372;13.610;2023-06-14T00:38:27;101529.25;;;13.23;70.07
80323;BME280;69636;52.372;13.610;2023-06-14T00:40:54;101529.41;;;13.12;70.61
80323;BME280;69636;52.372;13.610;2023-06-14T00:43:22;101522.81;;;13.16;70.74
80323;BME280;69636;52.372;13.610;2023-06-14T00:45:49;101517.50;;;13.16;70.84
80323;BME280;69636;52.372;13.610;2023-06-14T00:48:17;101516.34;;;13.18;70.59
80323;BME280;69636;52.372;13.610;2023-06-14T00:50:45;101512.56;;;13.21;70.84
80323;BME280;69636;52.372;13.610;2023-06-14T00:53:13;101516.78;;;13.14;71.26
80323;BME280;69636;52.372;13.610;2023-06-14T00:55:41;101511.94;;;13.00;72.21
80323;BME280;69636;52.372;13.610;2023-06-14T00:58:09;101515.63;;;12.99;72.50
80323;BME280;69636;52.372;13.610;2023-06-14T01:00:37;101513.16;;;12.87;72.88
80323;BME280;69636;52.372;13.610;2023-06-14T01:03:04;101518.94;;;13.01;73.05
80323;BME280;69636;52.372;13.610;2023-06-14T01:05:31;101515.22;;;13.21;72.13
80323;BME280;69636;52.372;13.610;2023-06-14T01:08:09;101518.88;;;13.20;72.63
80323;BME280;69636;52.372;13.610;2023-06-14T01:10:47;101511.66;;;13.03;73.28
80323;BME280;69636;52.372;13.610;2023-06-14T01:13:20;101510.72;;;13.21;73.08
80323;BME280;69636;52.372;13.610;2023-06-14T01:15:49;101509.75;;;13.13;73.08
80323;BME280;69636;52.372;13.610;2023-06-14T01:18:18;101507.38;;;13.19;73.55
80323;BME280;69636;52.372;13.610;2023-06-14T01:20:46;101513.28;;;13.13;73.80
80323;BME280;69636;52.372;13.610;2023-06-14T01:23:15;101508.38;;;12.91;74.52
80323;BME280;69636;52.372;13.610;2023-06-14T01:25:43;101514.31;;;13.03;74.00
80323;BME280;69636;52.372;13.610;2023-06-14T01:28:11;101514.84;;;13.06;74.37
80323;BME280;69636;52.372;13.610;2023-06-14T01:30:40;101513.25;;;12.96;74.64
80323;BME280;69636;52.372;13.610;2023-06-14T01:33:07;101508.25;;;13.10;73.89
80323;BME280;69636;52.372;13.610;2023-06-14T01:35:36;101514.09;;;13.14;74.23
80323;BME280;69636;52.372;13.610;2023-06-14T01:38:04;101505.72;;;13.09;74.23
80323;BME280;69636;52.372;13.610;2023-06-14T01:40:34;101502.75;;;12.94;74.76
80323;BME280;69636;52.372;13.610;2023-06-14T01:43:03;101512.28;;;12.97;74.92
80323;BME280;69636;52.372;13.610;2023-06-14T01:45:31;101512.00;;;12.72;76.25
80323;BME280;69636;52.372;13.610;2023-06-14T01:47:59;101516.28;;;12.83;75.52
80323;BME280;69636;52.372;13.610;2023-06-14T01:50:28;101518.19;;;12.90;75.50
80323;BME280;69636;52.372;13.610;2023-06-14T01:52:55;101512.72;;;13.10;74.29
80323;BME280;69636;52.372;13.610;2023-06-14T01:55:23;101516.69;;;13.06;74.67
80323;BME280;69636;52.372;13.610;2023-06-14T01:57:52;101518.66;;;13.04;74.89
80323;BME280;69636;52.372;13.610;2023-06-14T02:00:19;101510.59;;;12.96;75.27
80323;BME280;69636;52.372;13.610;2023-06-14T02:02:46;101511.88;;;13.19;74.52
80323;BME280;69636;52.372;13.610;2023-06-14T02:05:14;101517.69;;;12.77;76.62
80323;BME280;69636;52.372;13.610;2023-06-14T02:07:41;101518.94;;;12.83;76.21
80323;BME280;69636;52.372;13.610;2023-06-14T02:10:09;101516.03;;;12.76;76.58
80323;BME280;69636;52.372;13.610;2023-06-14T02:12:36;101520.66;;;12.74;76.75
80323;BME280;69636;52.372;13.610;2023-06-14T02:15:06;101519.53;;;12.77;76.53
80323;BME280;69636;52.372;13.610;2023-06-14T02:17:33;101525.00;;;12.75;76.24
80323;BME280;69636;52.372;13.610;2023-06-14T02:20:00;101528.31;;;12.87;75.70
80323;BME280;69636;52.372;13.610;2023-06-14T02:22:28;101529.25;;;12.68;76.62
80323;BME280;69636;52.372;13.610;2023-06-14T02:24:55;101529.34;;;12.76;76.87
80323;BME280;69636;52.372;13.610;2023-06-14T02:27:28;101529.25;;;12.41;78.29
80323;BME280;69636;52.372;13.610;2023-06-14T02:29:56;101523.44;;;12.55;77.42
80323;BME280;69636;52.372;13.610;2023-06-14T02:32:24;101521.47;;;12.57;77.91
80323;BME280;69636;52.372;13.610;2023-06-14T02:34:52;101528.34;;;12.50;77.55
80323;BME280;69636;52.372;13.610;2023-06-14T02:37:19;101521.72;;;12.64;77.22
80323;BME280;69636;52.372;13.610;2023-06-14T02:39:47;101531.53;;;12.63;77.11
80323;BME280;69636;52.372;13.610;2023-06-14T02:44:43;101531.13;;;12.58;77.73
80323;BME280;69636;52.372;13.610;2023-06-14T02:47:11;101533.03;;;12.38;78.85
80323;BME280;69636;52.372;13.610;2023-06-14T02:49:39;101529.97;;;12.33;79.05
80323;BME280;69636;52.372;13.610;2023-06-14T02:52:07;101535.84;;;12.37;78.80
80323;BME280;69636;52.372;13.610;2023-06-14T02:54:34;101537.19;;;12.50;78.35
80323;BME280;69636;52.372;13.610;2023-06-14T02:57:02;101534.59;;;12.68;77.77
80323;BME280;69636;52.372;13.610;2023-06-14T02:59:29;101535.44;;;12.69;77.91
80323;BME280;69636;52.372;13.610;2023-06-14T03:01:56;101534.88;;;12.65;78.01
80323;BME280;69636;52.372;13.610;2023-06-14T03:04:24;101533.97;;;12.74;77.44
80323;BME280;69636;52.372;13.610;2023-06-14T03:06:52;101531.25;;;12.66;77.20
80323;BME280;69636;52.372;13.610;2023-06-14T03:09:20;101532.50;;;12.35;78.40
80323;BME280;69636;52.372;13.610;2023-06-14T03:11:47;101526.47;;;12.33;78.88
80323;BME280;69636;52.372;13.610;2023-06-14T03:14:14;101525.94;;;12.56;76.97
80323;BME280;69636;52.372;13.610;2023-06-14T03:16:42;101529.84;;;12.62;76.66
80323;BME280;69636;52.372;13.610;2023-06-14T03:19:09;101532.97;;;12.48;77.24
80323;BME280;69636;52.372;13.610;2023-06-14T03:21:36;101527.88;;;12.27;78.59
80323;BME280;69636;52.372;13.610;2023-06-14T03:24:06;101532.84;;;12.12;79.12
80323;BME280;69636;52.372;13.610;2023-06-14T03:26:33;101527.97;;;12.45;77.72
80323;BME280;69636;52.372;13.610;2023-06-14T03:29:00;101537.00;;;12.24;78.44
80323;BME280;69636;52.372;13.610;2023-06-14T03:31:28;101536.47;;;12.21;78.83
80323;BME280;69636;52.372;13.610;2023-06-14T03:33:56;101540.41;;;12.07;79.70
80323;BME280;69636;52.372;13.610;2023-06-14T03:36:23;101537.81;;;12.35;78.08
80323;BME280;69636;52.372;13.610;2023-06-14T03:38:50;101535.66;;;12.48;77.14
80323;BME280;69636;52.372;13.610;2023-06-14T03:41:19;101545.88;;;12.15;79.44
80323;BME280;69636;52.372;13.610;2023-06-14T03:43:46;101547.84;;;12.13;79.09
80323;BME280;69636;52.372;13.610;2023-06-14T03:46:14;101550.09;;;12.08;79.87
80323;BME280;69636;52.372;13.610;2023-06-14T03:48:41;101553.06;;;11.86;80.52
80323;BME280;69636;52.372;13.610;2023-06-14T03:51:08;101547.44;;;11.99;80.83
80323;BME280;69636;52.372;13.610;2023-06-14T03:53:36;101545.94;;;11.77;81.24
80323;BME280;69636;52.372;13.610;2023-06-14T03:56:10;101549.41;;;11.68;81.90
80323;BME280;69636;52.372;13.610;2023-06-14T03:58:39;101557.50;;;11.76;82.07
80323;BME280;69636;52.372;13.610;2023-06-14T04:01:07;101551.50;;;11.74;81.97
80323;BME280;69636;52.372;13.610;2023-06-14T04:03:34;101556.56;;;11.77;81.93
80323;BME280;69636;52.372;13.610;2023-06-14T04:06:01;101553.06;;;11.86;82.06
80323;BME280;69636;52.372;13.610;2023-06-14T04:08:29;101561.44;;;12.01;82.16
80323;BME280;69636;52.372;13.610;2023-06-14T04:10:56;101573.88;;;12.19;81.67
80323;BME280;69636;52.372;13.610;2023-06-14T04:13:23;101572.13;;;12.38;80.61
80323;BME280;69636;52.372;13.610;2023-06-14T04:15:52;101564.59;;;12.70;79.65
80323;BME280;69636;52.372;13.610;2023-06-14T04:18:20;101564.13;;;12.75;79.32
80323;BME280;69636;52.372;13.610;2023-06-14T04:20:50;101561.78;;;12.72;79.79
80323;BME280;69636;52.372;13.610;2023-06-14T04:23:18;101560.03;;;12.80;79.34
80323;BME280;69636;52.372;13.610;2023-06-14T04:25:45;101553.00;;;12.89;79.25
80323;BME280;69636;52.372;13.610;2023-06-14T04:28:13;101556.50;;;12.89;79.54
80323;BME280;69636;52.372;13.610;2023-06-14T04:30:40;101563.66;;;13.34;77.08
80323;BME280;69636;52.372;13.610;2023-06-14T04:33:09;101561.75;;;13.27;77.57
80323;BME280;69636;52.372;13.610;2023-06-14T04:35:36;101555.91;;;13.23;78.34
80323;BME280;69636;52.372;13.610;2023-06-14T04:38:04;101561.25;;;13.23;78.41
80323;BME280;69636;52.372;13.610;2023-06-14T04:40:32;101556.34;;;13.36;77.81
80323;BME280;69636;52.372;13.610;2023-06-14T04:42:59;101559.03;;;13.72;77.15
80323;BME280;69636;52.372;13.610;2023-06-14T04:45:26;101568.09;;;14.31;74.41
80323;BME280;69636;52.372;13.610;2023-06-14T04:47:54;101567.22;;;14.22;74.91
80323;BME280;69636;52.372;13.610;2023-06-14T04:50:22;101565.66;;;14.63;72.92
80323;BME280;69636;52.372;13.610;2023-06-14T04:52:50;101577.63;;;14.51;73.29
80323;BME280;69636;52.372;13.610;2023-06-14T04:55:17;101568.47;;;14.53;73.33
80323;BME280;69636;52.372;13.610;2023-06-14T04:57:45;101567.22;;;14.82;72.35
80323;BME280;69636;52.372;13.610;2023-06-14T05:00:12;101565.22;;;14.84;72.11
80323;BME280;69636;52.372;13.610;2023-06-14T05:02:40;101566.69;;;15.20;71.26
80323;BME280;69636;52.372;13.610;2023-06-14T05:05:08;101572.28;;;15.51;69.52
80323;BME280;69636;52.372;13.610;2023-06-14T05:07:37;101573.22;;;15.34;69.88
80323;BME280;69636;52.372;13.610;2023-06-14T05:10:08;101564.91;;;15.45;69.54
80323;BME280;69636;52.372;13.610;2023-06-14T05:12:36;101567.19;;;15.24;69.80
80323;BME280;69636;52.372;13.610;2023-06-14T05:15:04;101572.38;;;15.34;69.16
80323;BME280;69636;52.372;13.610;2023-06-14T05:17:31;101572.69;;;15.14;69.72
80323;BME280;69636;52.372;13.610;2023-06-14T05:19:58;101563.63;;;14.99;70.94
80323;BME280;69636;52.372;13.610;2023-06-14T05:22:26;101575.69;;;15.11;71.15
80323;BME280;69636;52.372;13.610;2023-06-14T05:24:54;101575.59;;;15.29;69.91
80323;BME280;69636;52.372;13.610;2023-06-14T05:27:22;101568.19;;;15.15;70.94
80323;BME280;69636;52.372;13.610;2023-06-14T05:29:49;101576.72;;;15.18;71.25
80323;BME280;69636;52.372;13.610;2023-06-14T05:32:16;101587.25;;;15.20;70.94
80323;BME280;69636;52.372;13.610;2023-06-14T05:34:43;101590.59;;;15.22;70.80
80323;BME280;69636;52.372;13.610;2023-06-14T05:37:11;101591.63;;;15.29;70.66
80323;BME280;69636;52.372;13.610;2023-06-14T05:39:38;101586.59;;;15.26;70.55
80323;BME280;69636;52.372;13.610;2023-06-14T05:42:07;101591.13;;;15.34;69.69
80323;BME280;69636;52.372;13.610;2023-06-14T05:44:34;101592.31;;;15.39;69.64
80323;BME280;69636;52.372;13.610;2023-06-14T05:47:02;101599.84;;;15.44;69.30
80323;BME280;69636;52.372;13.610;2023-06-14T05:49:29;101590.28;;;15.33;69.60
80323;BME280;69636;52.372;13.610;2023-06-14T05:51:57;101596.47;;;15.25;69.66
80323;BME280;69636;52.372;13.610;2023-06-14T05:54:24;101596.59;;;15.16;70.04
80323;BME280;69636;52.372;13.610;2023-06-14T05:56:51;101600.94;;;15.17;69.77
80323;BME280;69636;52.372;13.610;2023-06-14T05:59:20;101598.91;;;15.11;70.30
80323;BME280;69636;52.372;13.610;2023-06-14T06:01:48;101602.25;;;15.13;70.27
80323;BME280;69636;52.372;13.610;2023-06-14T06:04:15;101603.81;;;15.23;69.82
80323;BME280;69636;52.372;13.610;2023-06-14T06:06:42;101601.59;;;15.03;70.53
80323;BME280;69636;52.372;13.610;2023-06-14T06:09:10;101597.44;;;15.16;70.35
80323;BME280;69636;52.372;13.610;2023-06-14T06:11:37;101593.13;;;15.23;70.31
80323;BME280;69636;52.372;13.610;2023-06-14T06:14:19;101598.97;;;15.27;70.74
80323;BME280;69636;52.372;13.610;2023-06-14T06:16:47;101599.66;;;15.29;70.43
80323;BME280;69636;52.372;13.610;2023-06-14T06:19:15;101603.16;;;15.38;69.87
80323;BME280;69636;52.372;13.610;2023-06-14T06:21:42;101600.53;;;15.46;69.50
80323;BME280;69636;52.372;13.610;2023-06-14T06:24:09;101595.66;;;15.41;69.24
80323;BME280;69636;52.372;13.610;2023-06-14T06:26:37;101592.91;;;15.17;70.65
80323;BME280;69636;52.372;13.610;2023-06-14T06:29:04;101598.91;;;15.11;71.07
80323;BME280;69636;52.372;13.610;2023-06-14T06:31:31;101603.94;;;15.14;70.63
80323;BME280;69636;52.372;13.610;2023-06-14T06:34:00;101601.44;;;15.12;70.85
80323;BME280;69636;52.372;13.610;2023-06-14T06:36:27;101606.94;;;15.03;71.44
80323;BME280;69636;52.372;13.610;2023-06-14T06:38:55;101601.63;;;15.19;70.89
80323;BME280;69636;52.372;13.610;2023-06-14T06:41:22;101603.66;;;15.33;70.50
80323;BME280;69636;52.372;13.610;2023-06-14T06:43:49;101610.38;;;15.45;69.80
80323;BME280;69636;52.372;13.610;2023-06-14T06:46:16;101614.41;;;15.49;70.63
80323;BME280;69636;52.372;13.610;2023-06-14T06:48:44;101607.75;;;15.61;68.68
80323;BME280;69636;52.372;13.610;2023-06-14T06:51:12;101617.13;;;15.57;69.82
80323;BME280;69636;52.372;13.610;2023-06-14T06:53:42;101616.81;;;15.77;70.23
80323;BME280;69636;52.372;13.610;2023-06-14T06:56:15;101613.13;;;15.94;68.89
80323;BME280;69636;52.372;13.610;2023-06-14T06:58:43;101610.66;;;16.09;68.78
80323;BME280;69636;52.372;13.610;2023-06-14T07:01:10;101618.47;;;16.18;68.59
80323;BME280;69636;52.372;13.610;2023-06-14T07:03:37;101616.09;;;16.40;67.35
80323;BME280;69636;52.372;13.610;2023-06-14T07:06:05;101620.44;;;16.57;66.96
80323;BME280;69636;52.372;13.610;2023-06-14T07:08:34;101626.09;;;16.78;66.09
80323;BME280;69636;52.372;13.610;2023-06-14T07:11:01;101623.09;;;16.81;64.77
80323;BME280;69636;52.372;13.610;2023-06-14T07:13:28;101618.97;;;17.02;65.01
80323;BME280;69636;52.372;13.610;2023-06-14T07:15:59;101625.88;;;16.96;65.27
80323;BME280;69636;52.372;13.610;2023-06-14T07:18:26;101635.66;;;16.81;65.70
80323;BME280;69636;52.372;13.610;2023-06-14T07:20:54;101641.53;;;16.76;66.51
80323;BME280;69636;52.372;13.610;2023-06-14T07:23:21;101639.84;;;16.83;66.55
80323;BME280;69636;52.372;13.610;2023-06-14T07:25:50;101641.47;;;16.92;65.09
80323;BME280;69636;52.372;13.610;2023-06-14T07:28:17;101636.44;;;16.98;64.17
80323;BME280;69636;52.372;13.610;2023-06-14T07:30:45;101629.50;;;17.11;64.49
80323;BME280;69636;52.372;13.610;2023-06-14T07:33:12;101637.78;;;16.93;65.84
80323;BME280;69636;52.372;13.610;2023-06-14T07:35:39;101636.31;;;17.22;64.42
80323;BME280;69636;52.372;13.610;2023-06-14T07:38:09;101642.09;;;17.03;64.75
80323;BME280;69636;52.372;13.610;2023-06-14T07:40:36;101647.66;;;17.01;65.39
80323;BME280;69636;52.372;13.610;2023-06-14T07:43:05;101639.25;;;17.04;65.48
80323;BME280;69636;52.372;13.610;2023-06-14T07:45:32;101636.91;;;17.01;65.22
80323;BME280;69636;52.372;13.610;2023-06-14T07:47:59;101636.59;;;16.96;65.27
80323;BME280;69636;52.372;13.610;2023-06-14T07:50:27;101632.03;;;17.05;65.26
80323;BME280;69636;52.372;13.610;2023-06-14T07:52:54;101636.75;;;17.03;64.78
80323;BME280;69636;52.372;13.610;2023-06-14T07:55:21;101631.25;;;17.27;64.02
80323;BME280;69636;52.372;13.610;2023-06-14T07:57:48;101625.75;;;17.20;64.62
80323;BME280;69636;52.372;13.610;2023-06-14T08:00:18;101626.28;;;17.16;65.16
80323;BME280;69636;52.372;13.610;2023-06-14T08:02:46;101626.56;;;17.29;64.91
80323;BME280;69636;52.372;13.610;2023-06-14T08:05:13;101628.88;;;17.63;63.02
80323;BME280;69636;52.372;13.610;2023-06-14T08:07:41;101629.00;;;17.70;62.04
80323;BME280;69636;52.372;13.610;2023-06-14T08:10:09;101622.44;;;17.72;62.31
80323;BME280;69636;52.372;13.610;2023-06-14T08:12:36;101620.41;;;17.74;61.39
80323;BME280;69636;52.372;13.610;2023-06-14T08:15:05;101627.72;;;17.66;62.23
80323;BME280;69636;52.372;13.610;2023-06-14T08:17:43;101625.66;;;17.68;62.59
80323;BME280;69636;52.372;13.610;2023-06-14T08:20:12;101630.31;;;17.74;62.36
80323;BME280;69636;52.372;13.610;2023-06-14T08:22:39;101625.06;;;17.57;63.13
80323;BME280;69636;52.372;13.610;2023-06-14T08:25:08;101622.22;;;17.82;61.94
80323;BME280;69636;52.372;13.610;2023-06-14T08:27:35;101626.44;;;17.99;61.34
80323;BME280;69636;52.372;13.610;2023-06-14T08:30:03;101623.19;;;17.89;61.63
80323;BME280;69636;52.372;13.610;2023-06-14T08:32:31;101631.41;;;18.10;59.63
80323;BME280;69636;52.372;13.610;2023-06-14T08:35:00;101622.84;;;18.44;58.76
80323;BME280;69636;52.372;13.610;2023-06-14T08:37:32;101628.19;;;18.67;58.62
80323;BME280;69636;52.372;13.610;2023-06-14T08:39:59;101626.31;;;18.82;58.04
80323;BME280;69636;52.372;13.610;2023-06-14T08:42:26;101628.44;;;18.87;57.86
80323;BME280;69636;52.372;13.610;2023-06-14T08:44:58;101622.59;;;18.83;56.91
80323;BME280;69636;52.372;13.610;2023-06-14T08:47:26;101625.13;;;18.70;57.62
80323;BME280;69636;52.372;13.610;2023-06-14T08:49:55;101631.41;;;18.62;57.73
80323;BME280;69636;52.372;13.610;2023-06-14T08:52:24;101630.59;;;18.62;56.45
80323;BME280;69636;52.372;13.610;2023-06-14T08:54:55;101635.97;;;18.62;56.29
80323;BME280;69636;52.372;13.610;2023-06-14T08:57:22;101634.84;;;18.71;56.29
80323;BME280;69636;52.372;13.610;2023-06-14T08:59:49;101631.69;;;18.82;56.54
80323;BME280;69636;52.372;13.610;2023-06-14T09:02:18;101630.03;;;18.81;56.50
80323;BME280;69636;52.372;13.610;2023-06-14T09:04:46;101635.41;;;18.81;56.39
80323;BME280;69636;52.372;13.610;2023-06-14T09:07:13;101633.81;;;19.02;55.51
80323;BME280;69636;52.372;13.610;2023-06-14T09:09:42;101624.75;;;19.24;55.42
80323;BME280;69636;52.372;13.610;2023-06-14T09:12:30;101624.94;;;19.37;54.20
80323;BME280;69636;52.372;13.610;2023-06-14T09:14:57;101646.69;;;19.72;53.92
80323;BME280;69636;52.372;13.610;2023-06-14T09:17:24;101632.28;;;20.07;53.19
80323;BME280;69636;52.372;13.610;2023-06-14T09:19:56;101642.25;;;20.34;52.85
80323;BME280;69636;52.372;13.610;2023-06-14T09:22:23;101635.53;;;20.45;51.19
80323;BME280;69636;52.372;13.610;2023-06-14T09:24:53;101635.56;;;20.86;50.39
80323;BME280;69636;52.372;13.610;2023-06-14T09:27:21;101634.38;;;21.30;48.03
80323;BME280;69636;52.372;13.610;2023-06-14T09:29:48;101631.91;;;21.42;48.26
80323;BME280;69636;52.372;13.610;2023-06-14T09:32:15;101641.91;;;21.48;47.92
80323;BME280;69636;52.372;13.610;2023-06-14T09:34:43;101642.00;;;20.85;49.30
80323;BME280;69636;52.372;13.610;2023-06-14T09:37:10;101639.31;;;20.51;50.55
80323;BME280;69636;52.372;13.610;2023-06-14T09:39:49;101642.91;;;20.37;50.56
80323;BME280;69636;52.372;13.610;2023-06-14T09:42:19;101641.91;;;20.38;50.41
80323;BME280;69636;52.372;13.610;2023-06-14T09:44:47;101639.34;;;20.08;51.13
80323;BME280;69636;52.372;13.610;2023-06-14T09:47:15;101635.16;;;19.99;51.85
80323;BME280;69636;52.372;13.610;2023-06-14T09:49:43;101637.88;;;20.06;51.74
80323;BME280;69636;52.372;13.610;2023-06-14T09:52:14;101638.25;;;20.24;50.88
80323;BME280;69636;52.372;13.610;2023-06-14T09:54:43;101638.81;;;20.41;50.80
80323;BME280;69636;52.372;13.610;2023-06-14T09:57:11;101642.44;;;20.26;51.21
80323;BME280;69636;52.372;13.610;2023-06-14T09:59:42;101636.34;;;20.18;50.58
80323;BME280;69636;52.372;13.610;2023-06-14T10:02:14;101640.53;;;19.99;51.55
80323;BME280;69636;52.372;13.610;2023-06-14T10:04:46;101633.94;;;20.29;51.20
80323;BME280;69636;52.372;13.610;2023-06-14T10:07:19;101632.31;;;20.35;51.37
80323;BME280;69636;52.372;13.610;2023-06-14T10:09:47;101635.19;;;20.55;50.16
80323;BME280;69636;52.372;13.610;2023-06-14T10:12:15;101630.03;;;20.60;51.30
80323;BME280;69636;52.372;13.610;2023-06-14T10:14:46;101630.03;;;20.60;49.61
80323;BME280;69636;52.372;13.610;2023-06-14T10:17:22;101634.53;;;20.87;49.17
80323;BME280;69636;52.372;13.610;2023-06-14T10:19:55;101634.53;;;20.87;48.37
80323;BME280;69636;52.372;13.610;2023-06-14T10:22:28;101637.84;;;20.83;48.53
80323;BME280;69636;52.372;13.610;2023-06-14T10:24:56;101634.78;;;20.58;48.93
80323;BME280;69636;52.372;13.610;2023-06-14T10:27:23;101631.09;;;20.65;48.79
80323;BME280;69636;52.372;13.610;2023-06-14T10:30:07;101634.88;;;20.71;49.61
80323;BME280;69636;52.372;13.610;2023-06-14T10:32:35;101630.75;;;20.75;49.29
80323;BME280;69636;52.372;13.610;2023-06-14T10:35:22;101637.34;;;20.66;49.94
80323;BME280;69636;52.372;13.610;2023-06-14T10:37:52;101633.41;;;20.69;50.02
80323;BME280;69636;52.372;13.610;2023-06-14T10:40:30;101625.38;;;20.75;49.32
80323;BME280;69636;52.372;13.610;2023-06-14T10:42:57;101628.25;;;20.74;49.16
80323;BME280;69636;52.372;13.610;2023-06-14T10:45:26;101621.00;;;20.74;49.06
80323;BME280;69636;52.372;13.610;2023-06-14T10:47:57;101625.31;;;20.69;49.12
80323;BME280;69636;52.372;13.610;2023-06-14T10:50:27;101629.16;;;20.87;49.16
80323;BME280;69636;52.372;13.610;2023-06-14T10:52:55;101627.91;;;20.90;47.82
80323;BME280;69636;52.372;13.610;2023-06-14T10:55:22;101617.53;;;20.87;47.88
80323;BME280;69636;52.372;13.610;2023-06-14T10:57:52;101620.81;;;20.82;48.66
80323;BME280;69636;52.372;13.610;2023-06-14T11:00:22;101611.44;;;20.72;48.91
80323;BME280;69636;52.372;13.610;2023-06-14T11:03:31;101611.72;;;20.90;48.89
80323;BME280;69636;52.372;13.610;2023-06-14T11:06:13;101604.75;;;21.09;48.48
80323;BME280;69636;52.372;13.610;2023-06-14T11:09:20;101596.84;;;21.00;49.83
80323;BME280;69636;52.372;13.610;2023-06-14T11:11:49;101596.72;;;21.22;47.56
80323;BME280;69636;52.372;13.610;2023-06-14T11:14:19;101597.97;;;20.78;47.47
80323;BME280;69636;52.372;13.610;2023-06-14T11:16:48;101602.94;;;20.81;48.08
80323;BME280;69636;52.372;13.610;2023-06-14T11:19:17;101600.06;;;20.83;48.07
80323;BME280;69636;52.372;13.610;2023-06-14T11:21:47;101590.25;;;20.69;49.03
80323;BME280;69636;52.372;13.610;2023-06-14T11:24:15;101587.63;;;20.88;47.89
80323;BME280;69636;52.372;13.610;2023-06-14T11:26:43;101591.38;;;20.87;49.41
80323;BME280;69636;52.372;13.610;2023-06-14T11:29:11;101584.75;;;20.90;48.98
80323;BME280;69636;52.372;13.610;2023-06-14T11:31:43;101583.09;;;20.95;48.52
80323;BME280;69636;52.372;13.610;2023-06-14T11:34:11;101586.84;;;20.94;47.57
80323;BME280;69636;52.372;13.610;2023-06-14T11:36:42;101576.66;;;20.96;47.20
80323;BME280;69636;52.372;13.610;2023-06-14T11:39:09;101575.25;;;21.00;48.02
80323;BME280;69636;52.372;13.610;2023-06-14T11:41:39;101570.78;;;21.34;46.85
80323;BME280;69636;52.372;13.610;2023-06-14T11:44:07;101564.63;;;21.93;46.20
80323;BME280;69636;52.372;13.610;2023-06-14T11:46:35;101569.31;;;22.70;44.11
80323;BME280;69636;52.372;13.610;2023-06-14T11:49:03;101566.75;;;23.33;42.58
80323;BME280;69636;52.372;13.610;2023-06-14T11:51:31;101559.25;;;24.16;40.75
80323;BME280;69636;52.372;13.610;2023-06-14T11:54:01;101557.56;;;25.25;37.60
80323;BME280;69636;52.372;13.610;2023-06-14T11:56:29;101559.88;;;25.81;35.90
80323;BME280;69636;52.372;13.610;2023-06-14T11:58:56;101561.78;;;26.27;35.18
80323;BME280;69636;52.372;13.610;2023-06-14T12:01:23;101545.94;;;25.89;36.51
80323;BME280;69636;52.372;13.610;2023-06-14T12:03:52;101548.19;;;26.04;36.35
80323;BME280;69636;52.372;13.610;2023-06-14T12:06:26;101542.84;;;26.56;34.70
80323;BME280;69636;52.372;13.610;2023-06-14T12:08:55;101545.91;;;26.71;34.66
80323;BME280;69636;52.372;13.610;2023-06-14T12:11:31;101540.19;;;27.13;33.26
80323;BME280;69636;52.372;13.610;2023-06-14T12:13:59;101545.13;;;26.99;34.34
80323;BME280;69636;52.372;13.610;2023-06-14T12:16:30;101538.56;;;26.60;34.26
80323;BME280;69636;52.372;13.610;2023-06-14T12:19:00;101529.69;;;26.53;33.36
80323;BME280;69636;52.372;13.610;2023-06-14T12:21:28;101530.22;;;26.50;33.68
80323;BME280;69636;52.372;13.610;2023-06-14T12:23:55;101522.97;;;26.84;33.92
80323;BME280;69636;52.372;13.610;2023-06-14T12:26:24;101523.56;;;26.46;34.15
80323;BME280;69636;52.372;13.610;2023-06-14T12:28:52;101516.19;;;26.58;33.05
80323;BME280;69636;52.372;13.610;2023-06-14T12:31:19;101519.84;;;26.75;33.27
80323;BME280;69636;52.372;13.610;2023-06-14T12:33:46;101523.22;;;26.19;34.14
80323;BME280;69636;52.372;13.610;2023-06-14T12:36:14;101516.13;;;26.41;34.65
80323;BME280;69636;52.372;13.610;2023-06-14T12:38:41;101519.03;;;27.03;32.79
80323;BME280;69636;52.372;13.610;2023-06-14T12:41:08;101515.16;;;26.87;32.76
80323;BME280;69636;52.372;13.610;2023-06-14T12:43:37;101512.16;;;26.72;32.54
80323;BME280;69636;52.372;13.610;2023-06-14T12:46:04;101513.63;;;26.80;32.54
80323;BME280;69636;52.372;13.610;2023-06-14T12:48:31;101501.41;;;26.54;33.70
80323;BME280;69636;52.372;13.610;2023-06-14T12:50:58;101502.47;;;26.53;33.70
80323;BME280;69636;52.372;13.610;2023-06-14T12:53:25;101505.97;;;27.05;32.87